createdAt,value
2022-09-23T00:02:16.901Z,3.73
2022-09-23T00:04:44.199Z,3.50
2022-09-23T00:07:11.331Z,3.70
2022-09-23T00:09:38.603Z,3.70
2022-09-23T00:12:09.074Z,3.70
2022-09-23T00:14:37.763Z,3.60
2022-09-23T00:17:04.932Z,3.60
2022-09-23T00:19:32.142Z,3.40
2022-09-23T00:21:59.264Z,3.37
2022-09-23T00:24:26.495Z,3.67
2022-09-23T00:26:53.602Z,3.17
2022-09-23T00:29:20.714Z,3.20
2022-09-23T00:31:47.947Z,3.33
2022-09-23T00:34:15.042Z,3.33
2022-09-23T00:36:43.728Z,3.53
2022-09-23T00:39:10.936Z,3.30
2022-09-23T00:41:38.105Z,3.37
2022-09-23T00:44:25.183Z,3.37
2022-09-23T00:46:52.973Z,3.30
2022-09-23T00:49:25.142Z,3.13
2022-09-23T00:51:55.755Z,2.90
2022-09-23T00:54:24.045Z,3.10
2022-09-23T00:56:51.266Z,3.60
2022-09-23T00:59:19.307Z,3.33
2022-09-23T01:01:46.980Z,3.37
2022-09-23T01:04:14.747Z,3.40
2022-09-23T01:06:41.869Z,3.20
2022-09-23T01:09:08.982Z,3.27
2022-09-23T01:11:50.854Z,3.10
2022-09-23T01:14:41.448Z,3.40
2022-09-23T01:17:20.818Z,3.20
2022-09-23T01:20:14.070Z,3.33
2022-09-23T01:22:41.128Z,3.07
2022-09-23T01:25:08.441Z,3.13
2022-09-23T01:27:38.402Z,3.37
2022-09-23T01:30:24.051Z,3.03
2022-09-23T01:32:54.188Z,3.20
2022-09-23T01:35:25.832Z,3.33
2022-09-23T01:37:57.930Z,3.30
2022-09-23T01:40:34.559Z,3.17
2022-09-23T01:43:10.689Z,3.40
2022-09-23T01:45:43.557Z,3.20
2022-09-23T01:48:22.474Z,3.23
2022-09-23T01:50:58.355Z,3.50
2022-09-23T01:53:44.329Z,3.20
2022-09-23T01:56:24.846Z,3.50
2022-09-23T01:59:02.567Z,3.40
2022-09-23T02:01:59.101Z,3.23
2022-09-23T02:04:31.990Z,3.53
2022-09-23T02:07:01.480Z,3.47
2022-09-23T02:09:32.326Z,3.20
2022-09-23T02:12:05.813Z,3.40
2022-09-23T02:14:37.610Z,3.30
2022-09-23T02:17:09.728Z,3.20
2022-09-23T02:19:42.023Z,3.50
2022-09-23T02:22:10.787Z,3.10
2022-09-23T02:24:39.188Z,3.13
2022-09-23T02:27:06.299Z,3.30
2022-09-23T02:29:41.274Z,3.13
2022-09-23T02:32:17.764Z,3.60
2022-09-23T02:34:54.270Z,3.20
2022-09-23T02:37:27.511Z,3.50
2022-09-23T02:40:03.676Z,3.73
2022-09-23T02:42:53.951Z,3.30
2022-09-23T02:45:21.110Z,3.67
2022-09-23T02:47:53.063Z,3.63
2022-09-23T02:50:22.285Z,5.40
2022-09-23T02:52:49.741Z,3.50
2022-09-23T02:55:17.831Z,3.70
2022-09-23T02:57:45.667Z,3.33
2022-09-23T03:00:13.136Z,3.30
2022-09-23T03:02:51.195Z,3.47
2022-09-23T03:05:31.880Z,3.73
2022-09-23T03:08:12.904Z,3.80
2022-09-23T03:10:58.923Z,3.50
2022-09-23T03:13:46.303Z,3.57
2022-09-23T03:16:32.387Z,3.60
2022-09-23T03:19:02.618Z,3.87
2022-09-23T03:21:32.968Z,3.73
2022-09-23T03:24:01.558Z,3.93
2022-09-23T03:26:31.423Z,3.80
2022-09-23T03:28:59.600Z,3.90
2022-09-23T03:31:26.804Z,4.10
2022-09-23T03:33:56.385Z,4.00
2022-09-23T03:36:46.326Z,4.90
2022-09-23T03:39:15.524Z,3.80
2022-09-23T03:41:45.252Z,4.10
2022-09-23T03:44:12.688Z,4.10
2022-09-23T03:46:40.451Z,4.20
2022-09-23T03:49:14.805Z,4.27
2022-09-23T03:51:44.667Z,4.33
2022-09-23T03:54:12.303Z,4.30
2022-09-23T03:56:39.402Z,4.53
2022-09-23T03:59:06.472Z,4.50
2022-09-23T04:01:33.588Z,4.50
2022-09-23T04:04:00.721Z,4.07
2022-09-23T04:06:27.872Z,4.23
2022-09-23T04:08:54.956Z,4.00
2022-09-23T04:11:22.029Z,4.40
2022-09-23T04:13:49.203Z,4.30
2022-09-23T04:16:16.461Z,4.13
2022-09-23T04:18:43.636Z,4.47
2022-09-23T04:21:10.705Z,4.20
2022-09-23T04:23:37.793Z,4.67
2022-09-23T04:26:05.816Z,3.90
2022-09-23T04:28:33.245Z,4.07
2022-09-23T04:31:00.433Z,4.10
2022-09-23T04:33:27.528Z,4.07
2022-09-23T04:35:56.337Z,3.97
2022-09-23T04:38:23.456Z,4.17
2022-09-23T04:40:50.617Z,4.27
2022-09-23T04:43:17.859Z,3.93
2022-09-23T04:45:45.382Z,4.53
2022-09-23T04:48:13.857Z,4.30
2022-09-23T04:50:41.408Z,4.13
2022-09-23T04:53:08.535Z,4.20
2022-09-23T04:55:35.616Z,4.20
2022-09-23T04:58:02.724Z,4.00
2022-09-23T05:00:29.898Z,4.53
2022-09-23T05:02:57.048Z,4.40
2022-09-23T05:05:24.200Z,4.60
2022-09-23T05:07:51.773Z,5.90
2022-09-23T05:10:19.129Z,7.33
2022-09-23T05:12:46.245Z,7.47
2022-09-23T05:15:15.117Z,5.93
2022-09-23T05:17:45.115Z,6.00
2022-09-23T05:20:13.824Z,4.90
2022-09-23T05:22:41.035Z,4.47
2022-09-23T05:25:08.332Z,4.40
2022-09-23T05:27:35.467Z,4.20
2022-09-23T05:30:02.795Z,4.37
2022-09-23T05:32:29.886Z,4.10
2022-09-23T05:34:58.385Z,4.40
2022-09-23T05:37:25.488Z,4.60
2022-09-23T05:39:52.640Z,4.80
2022-09-23T05:42:20.949Z,5.47
2022-09-23T05:44:48.212Z,4.40
2022-09-23T05:47:15.376Z,4.20
2022-09-23T05:49:59.247Z,4.20
2022-09-23T05:52:27.335Z,4.17
2022-09-23T05:54:54.455Z,4.43
2022-09-23T05:57:21.651Z,3.83
2022-09-23T05:59:48.799Z,3.87
2022-09-23T06:02:15.948Z,3.90
2022-09-23T06:04:43.818Z,3.87
2022-09-23T06:07:11.191Z,3.80
2022-09-23T06:09:38.766Z,4.00
2022-09-23T06:12:06.410Z,3.80
2022-09-23T06:14:33.488Z,4.23
2022-09-23T06:17:00.683Z,3.97
2022-09-23T06:19:27.753Z,3.80
2022-09-23T06:21:54.841Z,3.63
2022-09-23T06:24:28.606Z,4.00
2022-09-23T06:26:58.017Z,4.07
2022-09-23T06:29:25.174Z,3.60
2022-09-23T06:31:52.290Z,4.10
2022-09-23T06:34:20.055Z,4.00
2022-09-23T06:36:47.676Z,4.23
2022-09-23T06:39:15.464Z,4.07
2022-09-23T06:41:43.291Z,4.10
2022-09-23T06:44:10.521Z,3.50
2022-09-23T06:46:37.869Z,4.00
2022-09-23T06:49:05.057Z,3.80
2022-09-23T06:51:32.158Z,3.70
2022-09-23T06:53:59.396Z,4.00
2022-09-23T06:56:26.551Z,3.50
2022-09-23T06:58:54.648Z,3.70
2022-09-23T07:01:22.932Z,3.67
2022-09-23T07:03:52.475Z,3.50
2022-09-23T07:06:19.921Z,3.90
2022-09-23T07:08:48.218Z,3.43
2022-09-23T07:11:16.075Z,3.70
2022-09-23T07:13:43.616Z,3.93
2022-09-23T07:16:11.389Z,3.63
2022-09-23T07:18:38.922Z,3.37
2022-09-23T07:21:16.960Z,3.60
2022-09-23T07:23:51.766Z,3.77
2022-09-23T07:26:19.334Z,3.60
2022-09-23T07:28:46.401Z,3.73
2022-09-23T07:31:15.862Z,3.53
2022-09-23T07:33:44.407Z,3.73
2022-09-23T07:36:16.880Z,3.30
2022-09-23T07:38:45.703Z,3.60
2022-09-23T07:41:14.188Z,3.10
2022-09-23T07:43:41.282Z,3.50
2022-09-23T07:46:10.209Z,3.40
2022-09-23T07:48:38.370Z,3.33
2022-09-23T07:51:12.705Z,3.20
2022-09-23T07:53:39.986Z,3.00
2022-09-23T07:56:07.280Z,3.40
2022-09-23T07:58:35.177Z,3.40
2022-09-23T08:01:03.724Z,3.10
2022-09-23T08:03:30.830Z,3.30
2022-09-23T08:06:11.903Z,3.00
2022-09-23T08:08:40.667Z,3.10
2022-09-23T08:11:09.977Z,3.10
2022-09-23T08:13:37.135Z,3.20
2022-09-23T08:16:04.559Z,2.90
2022-09-23T08:18:31.738Z,3.17
2022-09-23T08:20:58.900Z,3.10
2022-09-23T08:23:26.418Z,3.20
2022-09-23T08:26:00.826Z,3.17
2022-09-23T08:28:28.631Z,4.93
2022-09-23T08:30:55.815Z,3.73
2022-09-23T08:33:23.903Z,3.67
2022-09-23T08:35:51.822Z,3.30
2022-09-23T08:38:19.244Z,3.00
2022-09-23T08:40:49.432Z,3.10
2022-09-23T08:43:33.398Z,2.90
2022-09-23T08:46:03.074Z,2.87
2022-09-23T08:48:33.008Z,2.80
2022-09-23T08:51:03.051Z,2.90
2022-09-23T08:53:31.545Z,2.80
2022-09-23T08:56:04.757Z,2.77
2022-09-23T08:58:47.253Z,2.87
2022-09-23T09:01:19.364Z,2.63
2022-09-23T09:03:54.386Z,2.70
2022-09-23T09:06:45.633Z,2.60
2022-09-23T09:09:26.884Z,2.80
2022-09-23T09:11:58.039Z,2.97
2022-09-23T09:14:31.345Z,2.50
2022-09-23T09:17:01.647Z,2.47
2022-09-23T09:19:40.738Z,2.83
2022-09-23T09:22:14.519Z,2.67
2022-09-23T09:24:44.499Z,2.67
2022-09-23T09:27:13.214Z,2.50
2022-09-23T09:29:43.272Z,2.70
2022-09-23T09:32:19.261Z,2.30
2022-09-23T09:34:54.581Z,2.30
2022-09-23T09:37:27.772Z,2.50
2022-09-23T09:39:56.123Z,2.30
2022-09-23T09:42:26.926Z,2.40
2022-09-23T09:45:06.734Z,2.30
2022-09-23T09:47:48.113Z,2.60
2022-09-23T09:50:21.377Z,2.30
2022-09-23T09:52:49.103Z,2.30
2022-09-23T09:55:29.229Z,2.90
2022-09-23T09:58:05.821Z,2.50
2022-09-23T10:00:42.845Z,2.37
2022-09-23T10:03:13.338Z,2.93
2022-09-23T10:05:46.750Z,2.90
2022-09-23T10:08:24.796Z,2.60
2022-09-23T10:10:55.755Z,3.17
2022-09-23T10:13:24.262Z,3.20
2022-09-23T10:15:54.769Z,2.83
2022-09-23T10:18:32.485Z,2.97
2022-09-23T10:21:16.936Z,3.00
2022-09-23T10:23:58.100Z,2.80
2022-09-23T10:26:33.571Z,2.80
2022-09-23T10:29:05.047Z,2.83
2022-09-23T10:31:33.677Z,2.70
2022-09-23T10:34:01.952Z,2.93
2022-09-23T10:36:30.542Z,2.80
2022-09-23T10:39:25.817Z,3.17
2022-09-23T10:42:11.815Z,3.03
2022-09-23T10:45:13.016Z,2.80
2022-09-23T10:47:54.385Z,2.73
2022-09-23T10:50:33.080Z,2.20
2022-09-23T10:53:05.035Z,2.40
2022-09-23T10:55:32.102Z,2.50
2022-09-23T10:58:00.007Z,2.40
2022-09-23T11:00:46.782Z,2.30
2022-09-23T11:03:17.507Z,2.40
2022-09-23T11:05:47.618Z,2.80
2022-09-23T11:08:29.723Z,2.60
2022-09-23T11:11:15.603Z,2.60
2022-09-23T11:13:54.497Z,2.60
2022-09-23T11:16:22.055Z,2.80
2022-09-23T11:18:49.682Z,2.40
2022-09-23T11:21:26.485Z,2.07
2022-09-23T11:24:15.831Z,2.40
2022-09-23T11:26:48.994Z,2.20
2022-09-23T11:29:36.422Z,2.40
2022-09-23T11:32:22.262Z,2.30
2022-09-23T11:35:09.587Z,2.07
2022-09-23T11:37:40.155Z,2.40
2022-09-23T11:40:15.607Z,2.20
2022-09-23T11:42:52.250Z,2.10
2022-09-23T11:45:21.665Z,2.07
2022-09-23T11:47:52.398Z,2.20
2022-09-23T11:50:27.791Z,2.27
2022-09-23T11:52:58.710Z,2.70
2022-09-23T11:55:31.450Z,2.27
2022-09-23T11:58:01.844Z,2.47
2022-09-23T12:00:34.376Z,2.10
2022-09-23T12:03:08.124Z,2.47
2022-09-23T12:05:39.380Z,2.50
2022-09-23T12:08:26.686Z,2.50
2022-09-23T12:11:08.549Z,2.40
2022-09-23T12:13:54.559Z,2.30
2022-09-23T12:16:31.066Z,2.20
2022-09-23T12:19:06.155Z,2.23
2022-09-23T12:21:53.317Z,2.53
2022-09-23T12:24:28.761Z,2.30
2022-09-23T12:26:58.321Z,2.07
2022-09-23T12:29:26.901Z,2.37
2022-09-23T12:31:54.147Z,2.00
2022-09-23T12:34:21.218Z,2.33
2022-09-23T12:36:48.517Z,2.00
2022-09-23T12:39:17.631Z,2.30
2022-09-23T12:41:47.372Z,2.20
2022-09-23T12:44:16.194Z,2.03
2022-09-23T12:46:46.676Z,2.10
2022-09-23T12:49:25.316Z,2.23
2022-09-23T12:52:11.268Z,2.57
2022-09-23T12:54:39.357Z,2.30
2022-09-23T12:57:10.034Z,2.20
2022-09-23T12:59:53.628Z,2.47
2022-09-23T13:02:26.409Z,2.10
2022-09-23T13:05:33.061Z,2.30
2022-09-23T13:08:03.099Z,2.33
2022-09-23T13:10:32.839Z,2.00
2022-09-23T13:13:05.108Z,2.20
2022-09-23T13:15:36.702Z,2.30
2022-09-23T13:18:19.155Z,1.90
2022-09-23T13:20:47.052Z,2.20
2022-09-23T13:23:33.062Z,2.17
2022-09-23T13:26:01.552Z,2.30
2022-09-23T13:28:30.522Z,2.50
2022-09-23T13:30:58.442Z,2.27
2022-09-23T13:33:47.771Z,2.10
2022-09-23T13:36:16.688Z,2.20
2022-09-23T13:38:43.870Z,2.37
2022-09-23T13:41:21.285Z,2.20
2022-09-23T13:43:49.736Z,2.20
2022-09-23T13:46:21.827Z,2.53
2022-09-23T13:48:51.670Z,2.30
2022-09-23T13:51:22.585Z,2.20
2022-09-23T13:53:56.627Z,2.27
2022-09-23T13:56:24.899Z,2.40
2022-09-23T13:58:52.366Z,2.13
2022-09-23T14:01:36.261Z,2.13
2022-09-23T14:04:03.425Z,2.53
2022-09-23T14:06:31.353Z,2.20
2022-09-23T14:09:00.530Z,1.90
2022-09-23T14:11:32.298Z,2.23
2022-09-23T14:14:01.247Z,2.50
2022-09-23T14:16:28.720Z,2.30
2022-09-23T14:19:00.205Z,1.87
2022-09-23T14:21:35.883Z,2.20
2022-09-23T14:24:16.648Z,2.20
2022-09-23T14:26:45.195Z,2.30
2022-09-23T14:29:17.159Z,2.50
2022-09-23T14:31:56.754Z,2.50
2022-09-23T14:34:43.096Z,2.80
2022-09-23T14:37:34.910Z,2.50
2022-09-23T14:40:02.123Z,2.70
2022-09-23T14:42:31.103Z,2.30
2022-09-23T14:44:58.208Z,2.20
2022-09-23T14:47:25.413Z,2.60
2022-09-23T14:50:11.398Z,2.83
2022-09-23T14:52:38.640Z,2.40
2022-09-23T14:55:06.729Z,2.13
2022-09-23T14:57:33.880Z,2.20
2022-09-23T15:00:00.976Z,2.63
2022-09-23T15:02:31.153Z,2.10
2022-09-23T15:05:27.417Z,2.10
2022-09-23T15:07:56.731Z,2.60
2022-09-23T15:10:27.691Z,2.20
2022-09-23T15:12:55.951Z,2.30
2022-09-23T15:15:29.989Z,2.57
2022-09-23T15:18:03.613Z,2.60
2022-09-23T15:20:31.882Z,2.20
2022-09-23T15:22:59.040Z,2.40
2022-09-23T15:25:27.559Z,2.53
2022-09-23T15:27:59.606Z,2.30
2022-09-23T15:30:27.175Z,2.10
2022-09-23T15:32:54.312Z,2.00
2022-09-23T15:35:22.269Z,2.27
2022-09-23T15:37:51.474Z,2.40
2022-09-23T15:40:23.708Z,2.40
2022-09-23T15:42:52.299Z,2.23
2022-09-23T15:45:22.093Z,2.17
2022-09-23T15:47:49.996Z,2.50
2022-09-23T15:50:17.463Z,2.87
2022-09-23T15:52:45.247Z,3.10
2022-09-23T15:55:15.340Z,2.83
2022-09-23T15:57:42.447Z,2.70
2022-09-23T16:00:12.322Z,2.80
2022-09-23T16:02:40.215Z,2.67
2022-09-23T16:05:07.743Z,2.80
2022-09-23T16:07:36.282Z,2.40
2022-09-23T16:10:03.675Z,2.63
2022-09-23T16:12:30.914Z,2.50
2022-09-23T16:14:58.173Z,2.80
2022-09-23T16:17:28.360Z,2.50
2022-09-23T16:19:55.523Z,2.83
2022-09-23T16:22:22.674Z,3.20
2022-09-23T16:24:49.781Z,2.70
2022-09-23T16:27:18.726Z,2.70
2022-09-23T16:29:45.814Z,2.73
2022-09-23T16:32:12.943Z,2.80
2022-09-23T16:34:40.052Z,2.67
2022-09-23T16:37:07.134Z,2.70
2022-09-23T16:39:34.252Z,2.57
2022-09-23T16:42:02.149Z,2.53
2022-09-23T16:44:33.045Z,2.72
2022-09-23T16:47:00.127Z,2.57
2022-09-23T16:49:27.467Z,2.70
2022-09-23T16:51:54.616Z,2.57
2022-09-23T16:54:23.830Z,2.50
2022-09-23T16:56:52.206Z,3.00
2022-09-23T16:59:19.327Z,2.40
2022-09-23T17:02:05.079Z,3.03
2022-09-23T17:04:32.277Z,2.80
2022-09-23T17:06:59.399Z,2.90
2022-09-23T17:09:29.028Z,2.77
2022-09-23T17:12:01.048Z,2.97
2022-09-23T17:14:31.516Z,2.67
2022-09-23T17:16:59.058Z,3.00
2022-09-23T17:19:26.307Z,3.07
2022-09-23T17:21:54.254Z,3.10
2022-09-23T17:24:21.386Z,3.30
2022-09-23T17:26:52.783Z,3.20
2022-09-23T17:29:20.420Z,3.25
2022-09-23T17:31:47.599Z,3.30
2022-09-23T17:34:14.790Z,2.70
2022-09-23T17:36:43.866Z,3.70
2022-09-23T17:39:11.368Z,4.10
2022-09-23T17:41:39.246Z,3.00
2022-09-23T17:44:08.018Z,2.90
2022-09-23T17:46:35.103Z,2.90
2022-09-23T17:49:03.954Z,2.83
2022-09-23T17:51:31.228Z,2.80
2022-09-23T17:53:58.555Z,2.77
2022-09-23T17:56:29.742Z,3.10
2022-09-23T17:59:00.268Z,3.33
2022-09-23T18:01:27.519Z,2.90
2022-09-23T18:03:59.222Z,2.77
2022-09-23T18:06:27.711Z,3.07
2022-09-23T18:08:56.165Z,2.70
2022-09-23T18:11:27.643Z,2.77
2022-09-23T18:13:59.248Z,3.00
2022-09-23T18:16:27.939Z,2.80
2022-09-23T18:18:56.153Z,2.80
2022-09-23T18:21:24.166Z,3.10
2022-09-23T18:23:51.300Z,2.60
2022-09-23T18:26:20.412Z,2.80
2022-09-23T18:28:47.950Z,2.63
2022-09-23T18:31:15.857Z,2.70
2022-09-23T18:33:42.967Z,2.63
2022-09-23T18:36:10.241Z,2.70
2022-09-23T18:38:37.417Z,2.90
2022-09-23T18:41:04.736Z,2.70
2022-09-23T18:43:37.527Z,3.00
2022-09-23T18:46:10.303Z,2.97
2022-09-23T18:48:56.247Z,3.17
2022-09-23T18:51:29.010Z,2.63
2022-09-23T18:54:00.881Z,2.80
2022-09-23T18:56:29.710Z,2.67
2022-09-23T18:58:57.265Z,2.87
2022-09-23T19:01:24.540Z,2.60
2022-09-23T19:03:56.115Z,3.00
2022-09-23T19:06:23.527Z,4.33
2022-09-23T19:08:51.670Z,2.70
2022-09-23T19:11:18.820Z,2.60
2022-09-23T19:13:46.477Z,2.90
2022-09-23T19:16:14.818Z,2.60
2022-09-23T19:18:42.700Z,2.37
2022-09-23T19:21:13.686Z,2.73
2022-09-23T19:23:41.294Z,2.70
2022-09-23T19:26:10.342Z,2.70
2022-09-23T19:28:37.959Z,2.80
2022-09-23T19:31:11.901Z,2.70
2022-09-23T19:33:41.266Z,2.93
2022-09-23T19:36:09.529Z,2.80
2022-09-23T19:38:39.699Z,2.80
2022-09-23T19:41:08.033Z,3.10
2022-09-23T19:43:37.571Z,2.90
2022-09-23T19:46:05.668Z,2.90
2022-09-23T19:48:32.785Z,2.80
2022-09-23T19:51:00.136Z,3.03
2022-09-23T19:53:28.242Z,2.97
2022-09-23T19:55:56.096Z,3.13
2022-09-23T19:58:23.380Z,2.90
2022-09-23T20:00:50.532Z,3.20
2022-09-23T20:03:18.265Z,2.77
2022-09-23T20:05:45.414Z,2.87
2022-09-23T20:08:12.480Z,3.07
2022-09-23T20:10:39.854Z,2.93
2022-09-23T20:13:07.522Z,3.57
2022-09-23T20:15:34.644Z,3.30
2022-09-23T20:18:01.760Z,3.77
2022-09-23T20:20:28.845Z,3.30
2022-09-23T20:22:56.028Z,3.47
2022-09-23T20:25:23.116Z,3.27
2022-09-23T20:27:52.609Z,3.27
2022-09-23T20:30:20.274Z,3.47
2022-09-23T20:32:48.581Z,3.63
2022-09-23T20:35:16.282Z,2.93
2022-09-23T20:37:43.427Z,3.80
2022-09-23T20:40:10.884Z,4.10
2022-09-23T20:42:38.450Z,4.60
2022-09-23T20:45:07.108Z,4.90
2022-09-23T20:47:34.271Z,5.27
2022-09-23T20:50:01.412Z,5.30
2022-09-23T20:52:28.556Z,5.37
2022-09-23T20:54:56.805Z,4.80
2022-09-23T20:57:23.937Z,4.53
2022-09-23T20:59:51.380Z,4.40
2022-09-23T21:02:18.591Z,4.03
2022-09-23T21:04:45.763Z,4.10
2022-09-23T21:07:12.858Z,4.20
2022-09-23T21:09:39.938Z,4.07
2022-09-23T21:12:07.105Z,3.60
2022-09-23T21:14:34.235Z,3.40
2022-09-23T21:17:01.328Z,3.60
2022-09-23T21:19:28.399Z,3.30
2022-09-23T21:21:55.524Z,3.97
2022-09-23T21:24:53.535Z,3.30
2022-09-23T21:27:09.724Z,3.33
2022-09-23T21:29:37.706Z,3.33
2022-09-23T21:32:05.153Z,3.30
2022-09-23T21:34:32.937Z,3.50
2022-09-23T21:37:00.242Z,3.43
2022-09-23T21:39:27.336Z,3.03
2022-09-23T21:41:54.434Z,3.00
2022-09-23T21:44:21.609Z,2.90
2022-09-23T21:46:48.793Z,3.00
2022-09-23T21:49:15.896Z,3.10
2022-09-23T21:51:43.066Z,3.10
2022-09-23T21:54:14.318Z,3.30
2022-09-23T21:56:41.866Z,3.07
2022-09-23T21:59:09.200Z,3.13
2022-09-23T22:01:37.961Z,3.03
2022-09-23T22:04:08.665Z,3.00
2022-09-23T22:06:38.002Z,2.90
2022-09-23T22:09:09.039Z,2.97
2022-09-23T22:11:55.932Z,2.87
2022-09-23T22:14:25.491Z,2.83
2022-09-23T22:16:57.612Z,2.90
2022-09-23T22:19:31.374Z,2.70
2022-09-23T22:21:58.615Z,2.80
2022-09-23T22:24:25.697Z,2.80
2022-09-23T22:26:52.943Z,2.90
2022-09-23T22:29:38.602Z,2.70
2022-09-23T22:32:25.730Z,2.73
2022-09-23T22:34:53.080Z,2.67
2022-09-23T22:37:21.824Z,2.83
2022-09-23T22:39:49.179Z,2.80
2022-09-23T22:42:16.295Z,2.80
2022-09-23T22:44:43.397Z,2.83
2022-09-23T22:47:10.990Z,3.07
2022-09-23T22:49:38.105Z,2.83
2022-09-23T22:52:08.060Z,3.00
2022-09-23T22:54:35.736Z,2.90
2022-09-23T22:57:06.587Z,3.20
2022-09-23T22:59:34.053Z,2.87
2022-09-23T23:02:02.469Z,2.80
2022-09-23T23:04:30.274Z,2.70
2022-09-23T23:06:58.510Z,2.83
2022-09-23T23:09:25.591Z,2.80
2022-09-23T23:11:52.687Z,2.80
2022-09-23T23:14:19.899Z,2.50
2022-09-23T23:16:47.079Z,3.00
2022-09-23T23:19:16.874Z,2.90
2022-09-23T23:21:45.483Z,3.00
2022-09-23T23:24:33.098Z,2.70
2022-09-23T23:27:00.304Z,3.00
2022-09-23T23:29:28.319Z,3.10
2022-09-23T23:31:55.555Z,3.00
2022-09-23T23:34:23.143Z,2.80
2022-09-23T23:36:57.281Z,2.90
2022-09-23T23:39:25.279Z,3.00
2022-09-23T23:41:54.168Z,2.87
2022-09-23T23:44:22.931Z,2.90
2022-09-23T23:46:50.192Z,2.90
2022-09-23T23:49:17.362Z,2.77
2022-09-23T23:51:44.814Z,2.93
2022-09-23T23:54:12.612Z,3.03
2022-09-23T23:56:39.688Z,3.00
2022-09-23T23:59:06.792Z,2.90
